Time;durP1;ratioP1;P1;durP2;ratioP2;P2;SDS_P1;SDS_P2;PMS_P1;PMS_P2;Temp;Humidity;BMP_temperature;BMP_pressure;BME280_temperature;BME280_humidity;BME280_pressure;Samples;Min_cycle;Max_cycle;Signal;HPM_P1;HPM_P2
2023/10/31 00:22:45;;;;;;;;;;;;;;;12.68;99.21;98284.53;1088049;54;1837;-85
2023/10/31 00:23:47;;;;;;;;;;;;;;;12.57;99.05;98300.16;1088707;47;926;-83
2023/10/31 00:24:53;;;;;;;;;;;;;;;12.55;98.59;98294.22;1089191;54;1004;-83
2023/10/31 00:26:18;;;;;;;;;;;;;;;12.48;98.01;98298.69;1088851;47;907;-83
2023/10/31 00:27:45;;;;;;;;;;;;;;;12.43;97.15;98301.97;1088747;46;1288;-83
2023/10/31 01:04:48;;;;;;;;;;;;;;;12.05;88.87;98337.22;1089193;54;393;-82
2023/10/31 01:06:10;;;;;;;;;;;;;;;11.89;87.89;98335.66;1088497;47;959;-80
2023/10/31 01:10:02;;;;;;;;;;;;;;;12.04;86.26;98340.94;1088608;47;1357;-79
2023/10/31 01:11:15;;;;;;;;;;;;;;;11.92;85.79;98348.63;1088505;47;1136;-81
2023/10/31 01:13:53;;;;;;;;;;;;;;;11.86;85.54;98338.72;1088648;47;917;-83
2023/10/31 01:14:56;;;;;;;;;;;;;;;11.79;85.87;98343.19;1088565;47;931;-80
2023/10/31 01:15:59;;;;;;;;;;;;;;;11.78;85.95;98350.38;1088662;54;1032;-80
2023/10/31 01:17:04;;;;;;;;;;;;;;;11.73;85.50;98346.63;1088579;54;1334;-82
2023/10/31 01:26:01;;;;;;;;;;;;;;;11.61;84.65;98349.84;1088698;46;950;-83
2023/10/31 01:27:02;;;;;;;;;;;;;;;11.59;85.10;98351.03;1088534;54;1316;-81
2023/10/31 01:28:05;;;;;;;;;;;;;;;11.66;85.01;98354.63;1088580;47;867;-82
2023/10/31 01:29:06;;;;;;;;;;;;;;;11.65;84.76;98345.75;1088467;47;944;-82
2023/10/31 01:30:14;;;;;;;;;;;;;;;11.54;84.66;98344.44;1088500;54;1026;-80
2023/10/31 01:31:14;;;;;;;;;;;;;;;11.55;84.97;98334.53;1088721;54;1046;-81
2023/10/31 01:32:18;;;;;;;;;;;;;;;11.51;84.58;98331.44;1088619;54;977;-81
2023/10/31 01:33:20;;;;;;;;;;;;;;;11.49;84.51;98321.94;1088694;46;916;-81
2023/10/31 01:34:22;;;;;;;;;;;;;;;11.49;84.52;98328.13;1088460;47;875;-81
2023/10/31 01:49:09;;;;;;;;;;;;;;;11.57;83.42;98358.47;1088862;54;677;-80
2023/10/31 01:50:49;;;;;;;;;;;;;;;11.53;83.72;98363.34;1088486;47;942;-79
2023/10/31 01:59:35;;;;;;;;;;;;;;;11.30;84.00;98399.16;1088386;47;952;-80
2023/10/31 02:00:40;;;;;;;;;;;;;;;11.35;83.65;98402.06;1088341;47;1018;-79
2023/10/31 02:01:44;;;;;;;;;;;;;;;11.40;83.39;98398.84;1088366;47;886;-79
2023/10/31 02:02:45;;;;;;;;;;;;;;;11.42;83.31;98402.16;1088271;54;1186;-79
2023/10/31 02:03:48;;;;;;;;;;;;;;;11.43;83.15;98403.81;1088588;54;1875;-79
2023/10/31 02:04:52;;;;;;;;;;;;;;;11.50;82.98;98402.03;1088711;54;967;-79
2023/10/31 02:05:55;;;;;;;;;;;;;;;11.54;83.01;98402.47;1088703;47;973;-79
2023/10/31 02:06:56;;;;;;;;;;;;;;;11.46;83.06;98400.75;1088644;54;1265;-81
2023/10/31 02:07:59;;;;;;;;;;;;;;;11.44;83.18;98404.63;1088686;54;1001;-81
2023/10/31 02:09:00;;;;;;;;;;;;;;;11.34;82.81;98405.78;1088658;54;1033;-81
2023/10/31 02:10:03;;;;;;;;;;;;;;;11.36;82.26;98406.41;1088663;54;1008;-81
2023/10/31 02:11:05;;;;;;;;;;;;;;;11.45;82.24;98406.28;1088763;54;1011;-81
2023/10/31 02:12:06;;;;;;;;;;;;;;;11.45;81.99;98411.63;1088703;54;991;-82
2023/10/31 02:13:13;;;;;;;;;;;;;;;11.39;82.30;98411.41;1088629;47;992;-81
2023/10/31 02:14:13;;;;;;;;;;;;;;;11.32;82.26;98413.19;1088694;47;993;-80
2023/10/31 02:15:16;;;;;;;;;;;;;;;11.40;81.83;98406.84;1088624;54;1020;-79
2023/10/31 02:16:17;;;;;;;;;;;;;;;11.38;81.42;98417.75;1088693;54;1005;-80
2023/10/31 02:17:20;;;;;;;;;;;;;;;11.41;81.59;98421.09;1088570;54;1633;-80
2023/10/31 02:18:21;;;;;;;;;;;;;;;11.41;81.50;98423.75;1088620;47;1022;-80
2023/10/31 02:19:24;;;;;;;;;;;;;;;11.37;81.63;98420.63;1088691;54;974;-80
2023/10/31 02:20:27;;;;;;;;;;;;;;;11.41;81.47;98423.75;1088647;54;918;-80
2023/10/31 02:21:32;;;;;;;;;;;;;;;11.48;81.11;98427.31;1088585;54;1047;-80
2023/10/31 02:22:35;;;;;;;;;;;;;;;11.46;80.84;98422.16;1088652;46;1043;-80
2023/10/31 02:23:38;;;;;;;;;;;;;;;11.34;81.15;98421.81;1088601;47;1898;-81
2023/10/31 02:24:39;;;;;;;;;;;;;;;11.33;81.54;98419.34;1088634;54;997;-80
2023/10/31 02:25:42;;;;;;;;;;;;;;;11.39;81.41;98419.41;1088595;54;939;-81
2023/10/31 02:26:42;;;;;;;;;;;;;;;11.43;80.98;98422.53;1088655;54;1005;-80
2023/10/31 02:27:46;;;;;;;;;;;;;;;11.43;81.00;98419.88;1088544;47;1420;-80
2023/10/31 02:28:46;;;;;;;;;;;;;;;11.48;80.91;98427.31;1088688;54;893;-80
2023/10/31 02:29:49;;;;;;;;;;;;;;;11.41;80.89;98426.44;1088641;47;962;-80
2023/10/31 02:30:50;;;;;;;;;;;;;;;11.37;80.75;98421.44;1088698;54;998;-80
2023/10/31 02:31:55;;;;;;;;;;;;;;;11.43;80.84;98427.06;1088664;54;954;-80
2023/10/31 02:32:55;;;;;;;;;;;;;;;11.38;80.42;98423.13;1088633;47;1508;-80
2023/10/31 02:33:58;;;;;;;;;;;;;;;11.35;80.82;98428.03;1088601;54;998;-80
2023/10/31 02:34:59;;;;;;;;;;;;;;;11.32;80.95;98423.88;1088626;47;1021;-80
2023/10/31 02:36:02;;;;;;;;;;;;;;;11.37;80.63;98416.09;1088637;47;1003;-81
2023/10/31 02:37:03;;;;;;;;;;;;;;;11.34;80.44;98421.00;1088590;54;1293;-80
2023/10/31 02:38:09;;;;;;;;;;;;;;;11.38;80.28;98423.13;1088646;47;1021;-80
2023/10/31 02:39:09;;;;;;;;;;;;;;;11.45;80.54;98427.69;1088552;47;990;-81
2023/10/31 02:40:13;;;;;;;;;;;;;;;11.49;80.36;98420.97;1088623;54;1149;-78
2023/10/31 02:41:14;;;;;;;;;;;;;;;11.48;80.43;98421.97;1088646;47;995;-79
2023/10/31 02:42:17;;;;;;;;;;;;;;;11.43;80.00;98416.38;1088507;47;989;-80
2023/10/31 02:44:53;;;;;;;;;;;;;;;11.35;79.69;98412.78;1088722;46;965;-81
2023/10/31 02:45:53;;;;;;;;;;;;;;;11.40;79.55;98414.88;1088346;47;1705;-82
2023/10/31 02:46:57;;;;;;;;;;;;;;;11.40;79.44;98412.22;1088542;46;1605;-81
2023/10/31 02:47:58;;;;;;;;;;;;;;;11.37;79.25;98410.75;1088657;54;1092;-81
2023/10/31 02:49:01;;;;;;;;;;;;;;;11.36;79.31;98409.09;1088562;47;1121;-80
2023/10/31 02:50:02;;;;;;;;;;;;;;;11.35;79.39;98420.81;1088699;47;1009;-80
2023/10/31 02:51:05;;;;;;;;;;;;;;;11.33;79.18;98412.16;1088682;54;968;-81
2023/10/31 02:52:06;;;;;;;;;;;;;;;11.39;79.31;98408.72;1088699;54;955;-81
2023/10/31 02:53:14;;;;;;;;;;;;;;;11.35;78.92;98418.13;1088441;47;994;-83
2023/10/31 02:54:15;;;;;;;;;;;;;;;11.47;78.63;98431.00;1088853;46;882;-84
2023/10/31 02:55:19;;;;;;;;;;;;;;;11.33;78.96;98430.91;1088923;47;821;-84
2023/10/31 03:11:32;;;;;;;;;;;;;;;11.22;79.34;98445.56;1088120;54;1186;-82
2023/10/31 03:12:35;;;;;;;;;;;;;;;11.23;79.37;98449.91;1088921;47;1043;-82
2023/10/31 03:13:39;;;;;;;;;;;;;;;11.20;79.79;98447.59;1088770;47;866;-83
2023/10/31 03:14:39;;;;;;;;;;;;;;;11.19;79.97;98450.47;1088634;54;961;-79
2023/10/31 03:17:05;;;;;;;;;;;;;;;11.16;79.93;98453.50;1088158;47;1341;-81
2023/10/31 03:18:06;;;;;;;;;;;;;;;11.12;80.21;98447.72;1088248;54;1137;-80
2023/10/31 03:19:11;;;;;;;;;;;;;;;11.12;79.89;98450.38;1088254;54;983;-81
2023/10/31 03:20:12;;;;;;;;;;;;;;;11.14;80.24;98448.34;1088391;54;1003;-81
2023/10/31 03:21:17;;;;;;;;;;;;;;;11.14;80.09;98453.69;1088600;47;901;-84
2023/10/31 03:29:27;;;;;;;;;;;;;;;11.08;80.57;98467.84;1088557;54;1047;-83
2023/10/31 03:30:28;;;;;;;;;;;;;;;11.09;80.50;98461.47;1088756;54;824;-81
2023/10/31 03:31:35;;;;;;;;;;;;;;;11.05;80.99;98460.19;1088397;47;962;-79
2023/10/31 03:32:36;;;;;;;;;;;;;;;11.05;80.76;98466.34;1088345;47;921;-80
2023/10/31 03:37:03;;;;;;;;;;;;;;;11.04;80.73;98470.06;1088775;54;1256;-81
2023/10/31 03:38:04;;;;;;;;;;;;;;;11.04;80.50;98469.22;1088320;47;978;-81
2023/10/31 03:56:30;;;;;;;;;;;;;;;11.13;78.95;98475.28;1088647;54;1929;-81
2023/10/31 03:57:36;;;;;;;;;;;;;;;11.19;79.30;98480.69;1088817;47;1364;-83
2023/10/31 03:59:07;;;;;;;;;;;;;;;11.17;79.14;98476.56;1089067;46;958;-82
2023/10/31 04:02:06;;;;;;;;;;;;;;;11.12;78.75;98489.69;1088622;47;958;-84
2023/10/31 04:08:53;;;;;;;;;;;;;;;11.20;78.34;98494.91;1088564;54;1183;-84
2023/10/31 04:09:57;;;;;;;;;;;;;;;11.21;78.24;98481.34;1088908;47;999;-83
2023/10/31 04:11:05;;;;;;;;;;;;;;;11.10;77.85;98481.81;1089023;47;1024;-82
2023/10/31 04:12:09;;;;;;;;;;;;;;;11.14;78.02;98476.97;1088941;54;1042;-84
2023/10/31 04:13:17;;;;;;;;;;;;;;;11.13;77.99;98488.66;1088877;46;975;-83
2023/10/31 04:39:57;;;;;;;;;;;;;;;11.39;74.34;98507.72;1087695;54;932;-80
2023/10/31 04:40:57;;;;;;;;;;;;;;;11.30;74.29;98506.16;1088155;47;944;-81
2023/10/31 04:42:02;;;;;;;;;;;;;;;11.30;74.12;98508.84;1088255;54;1000;-79
2023/10/31 04:43:02;;;;;;;;;;;;;;;11.25;74.14;98508.56;1088317;54;1080;-81
2023/10/31 04:44:06;;;;;;;;;;;;;;;11.22;73.92;98507.09;1088189;47;1854;-80
2023/10/31 04:45:08;;;;;;;;;;;;;;;11.22;73.55;98507.09;1088194;47;929;-80
2023/10/31 04:46:14;;;;;;;;;;;;;;;11.26;73.49;98504.88;1088309;46;1000;-81
2023/10/31 04:47:15;;;;;;;;;;;;;;;11.33;73.43;98508.47;1088163;47;1403;-80
2023/10/31 05:03:27;;;;;;;;;;;;;;;11.34;72.18;98528.03;1088625;54;710;-79
2023/10/31 05:04:38;;;;;;;;;;;;;;;11.32;72.23;98522.03;1088252;47;1838;-81
2023/10/31 05:05:42;;;;;;;;;;;;;;;11.31;71.86;98520.34;1088218;47;915;-80
2023/10/31 05:06:45;;;;;;;;;;;;;;;11.27;71.85;98519.09;1088128;47;871;-80
2023/10/31 05:07:51;;;;;;;;;;;;;;;11.27;71.76;98517.22;1088149;47;1244;-79
2023/10/31 05:20:21;;;;;;;;;;;;;;;11.33;71.31;98535.22;1088655;47;863;-85
2023/10/31 05:21:32;;;;;;;;;;;;;;;11.41;71.56;98538.81;1088786;47;957;-84
2023/10/31 05:22:43;;;;;;;;;;;;;;;11.45;71.02;98529.38;1088660;47;999;-83
2023/10/31 05:23:45;;;;;;;;;;;;;;;11.40;71.10;98537.97;1088506;47;1842;-83
2023/10/31 05:24:48;;;;;;;;;;;;;;;11.39;71.45;98531.78;1088831;54;934;-83
2023/10/31 05:25:59;;;;;;;;;;;;;;;11.33;70.97;98540.59;1088736;46;931;-84
2023/10/31 05:27:09;;;;;;;;;;;;;;;11.36;71.35;98532.16;1088726;54;1354;-83
2023/10/31 05:28:21;;;;;;;;;;;;;;;11.35;71.46;98541.19;1088747;46;991;-82
2023/10/31 05:29:25;;;;;;;;;;;;;;;11.41;71.27;98528.91;1088790;46;963;-84
2023/10/31 05:30:26;;;;;;;;;;;;;;;11.31;71.50;98539.09;1088665;47;978;-82
2023/10/31 05:31:30;;;;;;;;;;;;;;;11.30;71.06;98540.94;1088839;54;1122;-83
2023/10/31 05:32:33;;;;;;;;;;;;;;;11.26;71.49;98546.84;1088708;54;1048;-84
2023/10/31 05:33:38;;;;;;;;;;;;;;;11.27;71.62;98541.31;1088721;47;946;-83
2023/10/31 05:34:43;;;;;;;;;;;;;;;11.32;71.51;98538.06;1088595;47;904;-83
2023/10/31 05:35:53;;;;;;;;;;;;;;;11.34;71.22;98542.22;1088760;47;872;-82
2023/10/31 05:36:54;;;;;;;;;;;;;;;11.47;71.32;98546.06;1088581;54;963;-83
2023/10/31 05:37:57;;;;;;;;;;;;;;;11.34;71.17;98547.56;1088141;47;1240;-82
2023/10/31 05:38:59;;;;;;;;;;;;;;;11.33;71.06;98553.97;1088240;54;1000;-80
2023/10/31 05:40:01;;;;;;;;;;;;;;;11.32;70.81;98546.94;1088156;47;993;-82
2023/10/31 05:41:07;;;;;;;;;;;;;;;11.32;71.11;98548.78;1088131;46;896;-81
2023/10/31 05:42:08;;;;;;;;;;;;;;;11.23;71.01;98554.22;1088174;47;1005;-82
2023/10/31 05:43:11;;;;;;;;;;;;;;;11.29;70.95;98549.16;1088184;54;1041;-82
2023/10/31 05:44:12;;;;;;;;;;;;;;;11.29;70.77;98557.19;1088195;47;1853;-84
2023/10/31 05:45:15;;;;;;;;;;;;;;;11.32;70.74;98554.13;1088509;46;968;-82
2023/10/31 05:46:31;;;;;;;;;;;;;;;11.43;70.72;98552.84;1088511;47;995;-84
2023/10/31 05:47:35;;;;;;;;;;;;;;;11.41;70.29;98566.38;1088744;54;1422;-85
2023/10/31 05:48:38;;;;;;;;;;;;;;;11.44;70.67;98559.81;1088616;46;880;-83
2023/10/31 05:49:44;;;;;;;;;;;;;;;11.42;70.29;98564.56;1088514;47;1038;-83
2023/10/31 05:50:48;;;;;;;;;;;;;;;11.50;70.14;98561.78;1088671;47;849;-85
2023/10/31 05:51:53;;;;;;;;;;;;;;;11.44;70.41;98549.97;1088533;47;979;-83
2023/10/31 05:52:54;;;;;;;;;;;;;;;11.41;70.63;98560.22;1088547;47;1043;-84
2023/10/31 05:53:57;;;;;;;;;;;;;;;11.40;70.58;98559.38;1088487;54;1030;-82
2023/10/31 05:55:08;;;;;;;;;;;;;;;11.41;70.52;98560.22;1088602;47;927;-85
2023/10/31 05:59:15;;;;;;;;;;;;;;;11.47;70.30;98572.84;1088090;47;834;-80
2023/10/31 06:00:16;;;;;;;;;;;;;;;11.51;70.42;98571.47;1088045;47;1032;-80
2023/10/31 06:01:26;;;;;;;;;;;;;;;11.42;71.08;98577.94;1088047;47;1003;-82
2023/10/31 06:14:07;;;;;;;;;;;;;;;11.45;71.10;98583.72;1088483;54;728;-79
2023/10/31 06:15:08;;;;;;;;;;;;;;;11.44;71.03;98586.56;1088177;47;946;-82
2023/10/31 06:16:11;;;;;;;;;;;;;;;11.35;71.03;98589.34;1088260;54;944;-81
2023/10/31 06:17:12;;;;;;;;;;;;;;;11.40;71.11;98586.13;1088007;47;1371;-80
2023/10/31 06:18:15;;;;;;;;;;;;;;;11.42;71.10;98589.44;1088165;54;987;-82
2023/10/31 06:19:22;;;;;;;;;;;;;;;11.37;71.02;98592.69;1088068;46;875;-81
2023/10/31 06:23:48;;;;;;;;;;;;;;;11.35;70.97;98589.34;1088573;54;815;-80
2023/10/31 06:24:48;;;;;;;;;;;;;;;11.32;70.99;98595.09;1088092;47;1860;-80
2023/10/31 06:25:52;;;;;;;;;;;;;;;11.30;71.48;98596.28;1088519;54;1025;-81
2023/10/31 06:26:52;;;;;;;;;;;;;;;11.33;71.04;98591.41;1088492;54;897;-80
2023/10/31 06:27:56;;;;;;;;;;;;;;;11.28;71.44;98591.13;1088101;47;1219;-80
2023/10/31 06:28:56;;;;;;;;;;;;;;;11.32;71.23;98591.56;1088491;54;969;-81
2023/10/31 06:30:02;;;;;;;;;;;;;;;11.31;70.89;98598.78;1088086;47;970;-80
2023/10/31 06:31:03;;;;;;;;;;;;;;;11.38;70.88;98594.34;1088480;54;967;-81
2023/10/31 06:32:07;;;;;;;;;;;;;;;11.23;70.94;98604.22;1088402;54;966;-81
2023/10/31 06:33:08;;;;;;;;;;;;;;;11.22;71.20;98603.38;1088166;46;936;-81
2023/10/31 06:34:21;;;;;;;;;;;;;;;11.30;70.98;98597.13;1088283;47;992;-83
2023/10/31 06:35:24;;;;;;;;;;;;;;;11.26;71.06;98609.19;1088571;54;1038;-85
2023/10/31 06:36:27;;;;;;;;;;;;;;;11.20;70.98;98609.94;1088575;54;1004;-81
2023/10/31 06:37:29;;;;;;;;;;;;;;;11.14;70.77;98614.19;1088539;46;1349;-82
2023/10/31 06:38:33;;;;;;;;;;;;;;;11.29;70.78;98624.06;1088392;46;1019;-82
2023/10/31 06:39:34;;;;;;;;;;;;;;;11.30;70.71;98629.22;1088416;54;1010;-84
2023/10/31 06:40:37;;;;;;;;;;;;;;;11.21;70.61;98623.13;1088435;47;998;-84
2023/10/31 06:41:38;;;;;;;;;;;;;;;11.26;70.81;98633.25;1087989;46;977;-82
2023/10/31 06:42:38;;;;;;;;;;;;;;;11.35;70.86;98634.84;1087934;47;1051;-79
2023/10/31 06:43:42;;;;;;;;;;;;;;;11.39;70.69;98633.47;1087884;47;951;-79
2023/10/31 06:44:42;;;;;;;;;;;;;;;11.33;70.51;98631.53;1087936;54;1846;-79
2023/10/31 06:45:48;;;;;;;;;;;;;;;11.39;70.88;98627.28;1087950;47;982;-80
2023/10/31 06:46:49;;;;;;;;;;;;;;;11.46;70.67;98630.03;1087944;47;993;-80
2023/10/31 06:47:50;;;;;;;;;;;;;;;11.46;70.80;98622.00;1087744;54;1359;-79
2023/10/31 06:48:53;;;;;;;;;;;;;;;11.47;70.77;98611.16;1087671;47;983;-79
2023/10/31 06:49:54;;;;;;;;;;;;;;;11.44;70.86;98626.72;1088077;54;1023;-80
2023/10/31 06:56:40;;;;;;;;;;;;;;;11.26;71.50;98643.97;1088485;54;687;-82
2023/10/31 06:57:41;;;;;;;;;;;;;;;11.32;71.10;98653.97;1088437;54;1316;-82
2023/10/31 07:06:56;;;;;;;;;;;;;;;11.37;71.22;98648.88;1088484;54;682;-80
2023/10/31 07:07:57;;;;;;;;;;;;;;;11.31;70.59;98660.31;1088027;47;1416;-80
2023/10/31 07:09:05;;;;;;;;;;;;;;;11.29;70.92;98669.53;1088096;47;906;-81
2023/10/31 07:10:26;;;;;;;;;;;;;;;11.36;70.66;98660.59;1088174;54;980;-82
2023/10/31 07:23:06;;;;;;;;;;;;;;;11.33;72.31;98686.88;1088365;54;755;-80
2023/10/31 07:24:08;;;;;;;;;;;;;;;11.32;72.32;98685.22;1088382;54;999;-82
2023/10/31 07:25:12;;;;;;;;;;;;;;;11.30;72.21;98685.41;1088553;54;1849;-81
2023/10/31 07:26:12;;;;;;;;;;;;;;;11.30;72.04;98682.72;1087931;47;978;-81
2023/10/31 07:27:13;;;;;;;;;;;;;;;11.28;72.32;98683.94;1087736;47;1327;-80
2023/10/31 07:28:17;;;;;;;;;;;;;;;11.26;71.86;98685.94;1087599;47;931;-83
2023/10/31 07:29:17;;;;;;;;;;;;;;;11.35;71.89;98692.88;1087925;54;975;-80
2023/10/31 07:30:21;;;;;;;;;;;;;;;11.32;71.82;98686.06;1088020;47;1162;-80
2023/10/31 07:31:22;;;;;;;;;;;;;;;11.34;71.52;98689.34;1087882;54;964;-82
2023/10/31 07:32:25;;;;;;;;;;;;;;;11.31;71.54;98683.53;1087644;47;905;-80
2023/10/31 07:34:57;;;;;;;;;;;;;;;11.33;71.73;98687.72;1088112;47;862;-78
2023/10/31 07:36:10;;;;;;;;;;;;;;;11.35;71.08;98691.03;1087956;47;981;-79
2023/10/31 07:37:20;;;;;;;;;;;;;;;11.35;71.34;98699.06;1088279;54;1321;-85
2023/10/31 07:43:04;;;;;;;;;;;;;;;11.33;71.11;98709.13;1088319;54;760;-79
2023/10/31 07:44:05;;;;;;;;;;;;;;;11.41;71.15;98707.38;1088683;54;939;-80
2023/10/31 07:45:10;;;;;;;;;;;;;;;11.50;70.76;98708.94;1088261;47;1856;-83
2023/10/31 09:43:30;;;;;;;;;;;;;;;12.88;65.65;98784.25;1088785;54;1695;-81
2023/10/31 09:44:30;;;;;;;;;;;;;;;12.90;65.64;98779.53;1088204;47;925;-80
2023/10/31 09:45:34;;;;;;;;;;;;;;;12.98;65.77;98783.97;1088220;46;1849;-82
2023/10/31 09:46:35;;;;;;;;;;;;;;;13.06;65.63;98782.97;1088247;54;964;-82
2023/10/31 09:47:38;;;;;;;;;;;;;;;13.01;65.33;98780.06;1088177;54;1316;-82
2023/10/31 09:50:56;;;;;;;;;;;;;;;12.92;65.75;98788.22;1087820;54;1137;-81
2023/10/31 09:51:57;;;;;;;;;;;;;;;12.98;65.71;98785.78;1088171;47;909;-80
2023/10/31 09:53:08;;;;;;;;;;;;;;;13.05;65.10;98789.38;1088654;54;936;-82
2023/10/31 09:54:09;;;;;;;;;;;;;;;13.03;64.76;98783.38;1088373;47;951;-82
2023/10/31 09:55:17;;;;;;;;;;;;;;;13.13;64.89;98775.81;1087967;47;995;-81
2023/10/31 09:56:38;;;;;;;;;;;;;;;12.99;65.20;98782.09;1088123;47;960;-81
2023/10/31 09:57:41;;;;;;;;;;;;;;;13.00;65.07;98789.94;1088193;54;1389;-82
2023/10/31 09:58:50;;;;;;;;;;;;;;;12.82;65.13;98784.19;1088055;47;990;-79
2023/10/31 09:59:55;;;;;;;;;;;;;;;12.75;65.53;98786.81;1087903;47;998;-79
2023/10/31 10:00:57;;;;;;;;;;;;;;;12.78;65.51;98775.69;1088095;54;945;-80
2023/10/31 10:02:00;;;;;;;;;;;;;;;12.94;65.41;98770.06;1088077;46;985;-80
2023/10/31 10:03:01;;;;;;;;;;;;;;;13.06;65.03;98772.25;1088099;47;895;-79
2023/10/31 10:04:04;;;;;;;;;;;;;;;13.08;65.06;98773.72;1088092;54;982;-80
2023/10/31 10:05:05;;;;;;;;;;;;;;;13.08;65.39;98771.03;1088214;54;889;-80
2023/10/31 10:06:09;;;;;;;;;;;;;;;13.08;65.45;98767.53;1088091;47;1846;-81
2023/10/31 10:07:13;;;;;;;;;;;;;;;13.16;65.49;98763.88;1088195;54;1383;-80
2023/10/31 10:08:17;;;;;;;;;;;;;;;13.15;65.20;98764.91;1088188;46;891;-81
2023/10/31 10:09:17;;;;;;;;;;;;;;;13.21;65.01;98759.59;1088179;54;1017;-81
2023/10/31 10:10:18;;;;;;;;;;;;;;;13.08;65.14;98770.22;1088233;54;985;-81
2023/10/31 10:11:21;;;;;;;;;;;;;;;13.06;65.06;98766.88;1088234;54;867;-81
2023/10/31 10:12:22;;;;;;;;;;;;;;;13.06;65.39;98767.72;1088132;47;953;-81
2023/10/31 10:13:25;;;;;;;;;;;;;;;13.06;65.30;98759.69;1088101;47;869;-80
2023/10/31 10:14:41;;;;;;;;;;;;;;;13.10;65.13;98768.16;1088305;47;989;-82
2023/10/31 10:15:53;;;;;;;;;;;;;;;13.15;64.90;98764.91;1088500;54;969;-81
2023/10/31 10:16:54;;;;;;;;;;;;;;;13.07;65.17;98763.19;1088389;54;988;-81
2023/10/31 10:18:02;;;;;;;;;;;;;;;12.95;65.75;98752.97;1088270;47;1200;-79
2023/10/31 10:19:15;;;;;;;;;;;;;;;13.01;65.59;98763.97;1088104;47;993;-80
2023/10/31 10:20:19;;;;;;;;;;;;;;;13.02;65.75;98765.63;1088142;47;975;-80
2023/10/31 10:21:20;;;;;;;;;;;;;;;13.10;65.68;98770.84;1088105;54;1045;-81
2023/10/31 10:22:23;;;;;;;;;;;;;;;13.16;65.74;98775.44;1088476;54;1002;-80
2023/10/31 10:23:24;;;;;;;;;;;;;;;13.23;65.46;98768.28;1088604;54;988;-82
2023/10/31 10:24:28;;;;;;;;;;;;;;;13.23;65.45;98773.63;1088693;54;999;-82
2023/10/31 10:25:31;;;;;;;;;;;;;;;13.14;65.98;98774.78;1088815;54;1852;-83
2023/10/31 10:26:32;;;;;;;;;;;;;;;13.22;65.92;98774.69;1088535;47;1465;-81
2023/10/31 10:27:36;;;;;;;;;;;;;;;13.29;65.80;98771.22;1088446;47;1323;-80
2023/10/31 10:28:36;;;;;;;;;;;;;;;13.40;65.59;98784.16;1088668;54;1117;-82
2023/10/31 10:29:37;;;;;;;;;;;;;;;13.46;65.22;98780.69;1088524;54;1083;-82
2023/10/31 10:32:00;;;;;;;;;;;;;;;13.53;65.24;98770.81;1088133;47;960;-79
2023/10/31 10:33:01;;;;;;;;;;;;;;;13.60;64.83;98778.94;1088443;54;1020;-81
2023/10/31 10:34:01;;;;;;;;;;;;;;;13.48;64.64;98781.31;1088455;54;932;-81
2023/10/31 10:35:05;;;;;;;;;;;;;;;13.34;64.20;98784.88;1088411;47;978;-81
2023/10/31 10:36:08;;;;;;;;;;;;;;;13.43;63.82;98785.63;1088648;54;1586;-81
2023/10/31 10:37:12;;;;;;;;;;;;;;;13.40;63.91;98781.47;1088596;47;1462;-81
2023/10/31 10:43:24;;;;;;;;;;;;;;;13.74;63.19;98782.53;1088215;46;913;-80
2023/10/31 10:44:29;;;;;;;;;;;;;;;13.73;62.99;98772.81;1088219;47;980;-82
2023/10/31 10:49:09;;;;;;;;;;;;;;;13.88;62.93;98775.38;1088502;46;938;-81
2023/10/31 10:50:18;;;;;;;;;;;;;;;13.65;63.27;98771.09;1088498;54;834;-81
2023/10/31 10:51:34;;;;;;;;;;;;;;;13.48;63.66;98781.31;1088773;47;906;-82
2023/10/31 10:52:38;;;;;;;;;;;;;;;13.63;63.79;98777.69;1088456;46;962;-79
2023/10/31 10:53:45;;;;;;;;;;;;;;;13.67;63.32;98778.97;1088356;47;944;-81
2023/10/31 10:54:52;;;;;;;;;;;;;;;13.55;63.37;98773.31;1088310;47;982;-82
2023/10/31 10:56:00;;;;;;;;;;;;;;;13.61;63.29;98777.06;1088588;47;1055;-85
2023/10/31 11:02:52;;;;;;;;;;;;;;;13.80;63.27;98779.06;1088260;54;951;-79
2023/10/31 11:03:53;;;;;;;;;;;;;;;13.87;63.22;98779.94;1088474;54;1099;-82
2023/10/31 11:04:58;;;;;;;;;;;;;;;13.86;63.23;98778.28;1088458;54;1042;-81
2023/10/31 11:05:59;;;;;;;;;;;;;;;13.88;63.15;98776.25;1088454;54;1836;-82
2023/10/31 11:12:46;;;;;;;;;;;;;;;13.55;63.87;98782.19;1088747;54;489;-81
2023/10/31 11:13:46;;;;;;;;;;;;;;;13.63;63.46;98789.28;1088126;47;1002;-82
2023/10/31 11:14:52;;;;;;;;;;;;;;;13.67;63.38;98785.16;1088239;47;982;-85
2023/10/31 11:20:38;;;;;;;;;;;;;;;13.48;64.79;98797.44;1088704;54;728;-82
2023/10/31 11:21:54;;;;;;;;;;;;;;;13.50;64.60;98798.06;1088473;47;919;-82
2023/10/31 11:23:06;;;;;;;;;;;;;;;13.48;64.66;98801.94;1088259;47;962;-80
2023/10/31 11:24:08;;;;;;;;;;;;;;;13.31;65.53;98801.38;1088022;54;945;-80
2023/10/31 11:25:09;;;;;;;;;;;;;;;13.40;65.32;98800.25;1088135;54;1059;-80
2023/10/31 11:26:12;;;;;;;;;;;;;;;13.39;65.74;98809.34;1088015;47;1896;-79
2023/10/31 11:27:13;;;;;;;;;;;;;;;13.44;65.64;98806.88;1088062;54;1324;-81
2023/10/31 11:28:15;;;;;;;;;;;;;;;13.40;65.67;98800.25;1088150;47;967;-82
2023/10/31 11:29:20;;;;;;;;;;;;;;;13.25;66.17;98802.97;1088089;47;929;-80
2023/10/31 11:30:21;;;;;;;;;;;;;;;13.26;66.40;98801.97;1088047;47;1003;-81
2023/10/31 11:31:24;;;;;;;;;;;;;;;13.40;65.87;98808.31;1088155;47;941;-80
2023/10/31 11:32:26;;;;;;;;;;;;;;;13.48;65.66;98802.81;1088072;54;1057;-80
2023/10/31 11:39:25;;;;;;;;;;;;;;;13.57;64.89;98800.78;1087741;54;1173;-81
2023/10/31 11:40:26;;;;;;;;;;;;;;;13.57;64.44;98800.78;1088151;47;1093;-82
2023/10/31 11:41:35;;;;;;;;;;;;;;;13.68;64.32;98794.06;1088036;54;1133;-80
2023/10/31 11:42:36;;;;;;;;;;;;;;;13.62;64.82;98800.19;1088150;47;912;-80
2023/10/31 11:43:51;;;;;;;;;;;;;;;13.62;64.97;98808.25;1088071;47;1007;-80
2023/10/31 11:44:57;;;;;;;;;;;;;;;13.70;64.48;98810.78;1088027;47;1135;-81
2023/10/31 11:46:00;;;;;;;;;;;;;;;13.68;64.49;98813.69;1088044;47;1860;-81
2023/10/31 11:53:04;;;;;;;;;;;;;;;13.80;63.55;98811.28;1088400;54;934;-81
2023/10/31 11:54:08;;;;;;;;;;;;;;;13.91;63.77;98809.09;1088220;47;1008;-82
2023/10/31 11:55:15;;;;;;;;;;;;;;;14.01;63.37;98813.09;1088172;47;1014;-82
2023/10/31 11:56:29;;;;;;;;;;;;;;;14.02;63.39;98812.06;1088317;47;930;-82
2023/10/31 11:57:32;;;;;;;;;;;;;;;13.99;63.55;98816.97;1088195;47;1306;-81
2023/10/31 11:58:33;;;;;;;;;;;;;;;13.79;63.66;98820.38;1088024;47;946;-80
2023/10/31 11:59:38;;;;;;;;;;;;;;;13.82;63.61;98819.97;1087913;47;961;-81
2023/10/31 12:00:39;;;;;;;;;;;;;;;13.81;63.93;98818.31;1088307;54;1037;-81
2023/10/31 12:01:50;;;;;;;;;;;;;;;13.93;63.62;98823.16;1088093;47;970;-79
2023/10/31 12:02:58;;;;;;;;;;;;;;;13.92;63.80;98824.19;1087834;47;1385;-80
2023/10/31 12:04:01;;;;;;;;;;;;;;;13.91;63.87;98823.34;1087953;47;889;-79
2023/10/31 12:05:08;;;;;;;;;;;;;;;13.99;63.70;98825.91;1088010;54;1028;-80
2023/10/31 12:08:29;;;;;;;;;;;;;;;13.80;64.09;98838.13;1088149;54;868;-81
2023/10/31 12:09:29;;;;;;;;;;;;;;;13.92;64.06;98835.78;1088350;47;950;-82
2023/10/31 12:10:36;;;;;;;;;;;;;;;13.86;64.31;98834.69;1088131;54;1125;-81
2023/10/31 12:11:44;;;;;;;;;;;;;;;13.92;64.29;98832.25;1088099;47;951;-81
2023/10/31 12:12:44;;;;;;;;;;;;;;;13.84;63.90;98833.22;1088104;47;981;-80
2023/10/31 12:13:55;;;;;;;;;;;;;;;13.87;64.08;98827.44;1088179;54;1014;-82
2023/10/31 12:15:04;;;;;;;;;;;;;;;13.75;64.27;98840.59;1088035;47;948;-81
2023/10/31 12:16:12;;;;;;;;;;;;;;;13.80;63.93;98834.63;1088060;47;1038;-81
2023/10/31 12:17:13;;;;;;;;;;;;;;;13.86;63.97;98839.22;1087878;47;1252;-82
2023/10/31 12:18:17;;;;;;;;;;;;;;;13.72;64.17;98835.59;1088224;54;1056;-82
2023/10/31 12:19:23;;;;;;;;;;;;;;;13.75;64.02;98829.00;1088477;54;935;-82
2023/10/31 12:20:24;;;;;;;;;;;;;;;13.79;64.02;98841.84;1088384;54;981;-82
2023/10/31 12:21:41;;;;;;;;;;;;;;;13.83;64.07;98836.94;1088416;54;969;-82
2023/10/31 12:22:43;;;;;;;;;;;;;;;13.83;64.21;98837.75;1088336;47;1051;-81
2023/10/31 12:23:46;;;;;;;;;;;;;;;13.88;64.00;98840.72;1088434;47;906;-81
2023/10/31 12:24:47;;;;;;;;;;;;;;;13.69;64.58;98841.38;1088642;46;939;-82
2023/10/31 12:25:54;;;;;;;;;;;;;;;13.66;65.01;98839.09;1088482;46;1037;-83
2023/10/31 12:26:55;;;;;;;;;;;;;;;13.56;65.33;98836.72;1088600;54;937;-83
2023/10/31 12:27:55;;;;;;;;;;;;;;;13.48;65.26;98839.53;1088600;54;1138;-81
2023/10/31 12:29:08;;;;;;;;;;;;;;;13.56;65.12;98842.94;1088351;54;1044;-80